Time;durP1;ratioP1;P1;durP2;ratioP2;P2;SDS_P1;SDS_P2;PMS_P1;PMS_P2;Temp;Humidity;BMP_temperature;BMP_pressure;BME280_temperature;BME280_humidity;BME280_pressure;Samples;Min_cycle;Max_cycle;Signal;HPM_P1;HPM_P2
2021/12/20 00:01:57;;;;;;;15.63;10.68;;;5.40;99.90;;;;;;5074485;28;20480;-46
2021/12/20 00:04:23;;;;;;;15.75;9.75;;;5.40;99.90;;;;;;5088964;28;20060;-46
2021/12/20 00:06:49;;;;;;;15.27;10.43;;;5.50;99.90;;;;;;5074254;28;20021;-47
2021/12/20 00:09:15;;;;;;;15.05;10.13;;;5.50;99.90;;;;;;5074076;28;20056;-47
2021/12/20 00:11:41;;;;;;;12.77;10.10;;;5.50;99.90;;;;;;5088719;28;20556;-47
2021/12/20 00:14:07;;;;;;;13.43;9.07;;;5.60;99.90;;;;;;5074144;28;20024;-47
2021/12/20 00:16:33;;;;;;;16.75;10.40;;;5.50;99.90;;;;;;5067948;28;20021;-47
2021/12/20 00:18:58;;;;;;;14.35;9.52;;;5.50;99.90;;;;;;5073712;28;20040;-47
2021/12/20 00:21:24;;;;;;;12.75;7.18;;;5.50;99.90;;;;;;5074018;28;20036;-46
2021/12/20 00:23:50;;;;;;;12.80;9.43;;;5.40;99.90;;;;;;5073896;28;20448;-46
2021/12/20 00:26:16;;;;;;;12.75;9.77;;;5.50;99.90;;;;;;5073538;28;20479;-48
2021/12/20 00:28:42;;;;;;;11.65;8.82;;;5.50;99.90;;;;;;5073336;28;20024;-48
2021/12/20 00:31:08;;;;;;;13.02;9.27;;;5.50;99.90;;;;;;5073755;28;20024;-45
2021/12/20 00:33:34;;;;;;;14.07;8.65;;;5.40;99.90;;;;;;5073860;28;20098;-48
2021/12/20 00:36:08;;;;;;;12.30;8.55;;;5.50;99.90;;;;;;5071431;28;20354;-47
2021/12/20 00:41:23;;;;;;;12.68;9.00;;;5.30;99.90;;;;;;5073743;28;20071;-46
2021/12/20 00:43:49;;;;;;;13.40;7.57;;;5.30;99.90;;;;;;5073915;28;20036;-47
2021/12/20 00:46:15;;;;;;;12.77;7.78;;;5.30;99.90;;;;;;5073565;28;20028;-46
2021/12/20 00:48:40;;;;;;;11.95;8.20;;;5.20;99.90;;;;;;5073532;28;20070;-47
2021/12/20 00:51:06;;;;;;;13.15;8.20;;;5.20;99.90;;;;;;5071889;28;20035;-44
2021/12/20 00:53:32;;;;;;;13.43;8.75;;;5.20;99.90;;;;;;5073642;28;20055;-48
2021/12/20 00:55:58;;;;;;;15.80;9.43;;;5.20;99.90;;;;;;5073721;28;20020;-45
2021/12/20 00:58:23;;;;;;;11.75;7.95;;;5.20;99.90;;;;;;5073549;28;20038;-47
2021/12/20 01:00:51;;;;;;;12.88;8.95;;;5.20;99.90;;;;;;5071470;28;20036;-46
2021/12/20 01:03:21;;;;;;;10.32;7.63;;;5.20;99.90;;;;;;5073448;28;20040;-48
2021/12/20 01:05:48;;;;;;;12.77;8.60;;;5.20;99.90;;;;;;5073414;28;20028;-45
2021/12/20 01:08:14;;;;;;;9.88;7.75;;;5.20;99.90;;;;;;5073229;28;20392;-47
2021/12/20 01:10:45;;;;;;;12.52;7.97;;;5.20;99.90;;;;;;5073540;28;20114;-47
2021/12/20 01:13:13;;;;;;;11.80;7.90;;;5.20;99.90;;;;;;5073323;28;20044;-48
2021/12/20 01:15:46;;;;;;;9.60;7.18;;;5.10;99.90;;;;;;5073460;28;20028;-46
2021/12/20 01:18:12;;;;;;;12.00;8.65;;;5.10;99.90;;;;;;5073422;28;20063;-45
2021/12/20 01:20:38;;;;;;;10.50;7.57;;;5.00;99.90;;;;;;5073384;28;20365;-49
2021/12/20 01:23:05;;;;;;;10.57;6.20;;;5.00;99.90;;;;;;5073639;28;20111;-48
2021/12/20 01:25:31;;;;;;;12.05;8.35;;;4.90;99.90;;;;;;5073300;28;20021;-46
2021/12/20 01:27:57;;;;;;;10.95;7.57;;;4.90;99.90;;;;;;5073215;28;20468;-48
2021/12/20 01:30:25;;;;;;;11.15;8.32;;;4.90;99.90;;;;;;5070967;28;20041;-48
2021/12/20 01:32:52;;;;;;;12.13;7.93;;;4.90;99.90;;;;;;5071074;28;20123;-48
2021/12/20 01:35:20;;;;;;;12.15;7.95;;;4.90;99.90;;;;;;5073287;28;20111;-48
2021/12/20 01:37:45;;;;;;;10.57;8.32;;;4.90;99.90;;;;;;5073025;28;20033;-48
2021/12/20 01:40:13;;;;;;;191.27;170.35;;;4.90;99.90;;;;;;5073577;28;20458;-48
2021/12/20 01:42:40;;;;;;;28.63;15.20;;;4.90;99.90;;;;;;5076738;28;20034;-46
2021/12/20 01:45:15;;;;;;;9.18;6.95;;;4.90;99.90;;;;;;5076747;28;20532;-47
2021/12/20 01:47:45;;;;;;;215.65;194.18;;;4.90;99.90;;;;;;5076802;28;20025;-47
2021/12/20 01:50:25;;;;;;;10.00;6.45;;;4.90;99.90;;;;;;5041872;28;20060;-48
2021/12/20 01:52:51;;;;;;;10.75;7.28;;;4.90;99.90;;;;;;5076907;28;20190;-45
2021/12/20 01:55:20;;;;;;;9.60;6.70;;;4.90;99.90;;;;;;5077441;28;20347;-47
2021/12/20 01:57:47;;;;;;;9.18;6.68;;;5.00;99.90;;;;;;5071776;28;20146;-46
2021/12/20 02:00:17;;;;;;;7.32;5.93;;;5.00;99.90;;;;;;5076553;28;20047;-48
2021/12/20 02:02:44;;;;;;;8.50;5.88;;;5.00;99.90;;;;;;5076607;28;20489;-44
2021/12/20 02:05:18;;;;;;;8.98;5.82;;;5.00;99.90;;;;;;5076509;28;20051;-46
2021/12/20 02:08:22;;;;;;;6.95;5.28;;;5.00;99.90;;;;;;5074563;28;20056;-46
2021/12/20 02:10:37;;;;;;;;;;;5.10;99.90;;;;;;5074482;28;20044;-48
2021/12/20 02:13:03;;;;;;;8.63;5.70;;;5.10;99.90;;;;;;5076526;28;19905;-47
2021/12/20 02:15:29;;;;;;;7.53;5.30;;;5.00;99.90;;;;;;5040748;28;20495;-48
2021/12/20 02:17:54;;;;;;;6.70;4.63;;;5.10;99.90;;;;;;5076179;28;20029;-46
2021/12/20 02:20:29;;;;;;;8.43;5.60;;;5.10;99.90;;;;;;5076287;28;20032;-47
2021/12/20 02:22:57;;;;;;;6.72;5.05;;;5.10;99.90;;;;;;5076540;28;20031;-45
2021/12/20 02:25:26;;;;;;;7.45;5.55;;;5.10;99.90;;;;;;5073828;28;20032;-47
2021/12/20 02:27:52;;;;;;;6.88;5.18;;;5.10;99.90;;;;;;5076373;28;20385;-45
2021/12/20 02:38:30;;;;;;;6.35;4.90;;;5.00;99.90;;;;;;5075923;28;20129;-46
2021/12/20 02:40:57;;;;;;;7.32;4.90;;;5.10;99.90;;;;;;5075815;28;20071;-47
2021/12/20 02:43:23;;;;;;;6.70;4.53;;;5.00;99.90;;;;;;5075774;28;20028;-46
2021/12/20 02:45:49;;;;;;;5.60;4.10;;;5.10;99.90;;;;;;5076058;28;20025;-46
2021/12/20 02:48:15;;;;;;;9.38;5.15;;;5.00;99.90;;;;;;5040096;28;20039;-45
2021/12/20 02:50:41;;;;;;;7.82;5.20;;;5.10;99.90;;;;;;5075597;28;20059;-46
2021/12/20 02:53:06;;;;;;;6.65;4.65;;;5.10;99.90;;;;;;5075554;28;20442;-48
2021/12/20 02:55:32;;;;;;;7.45;4.43;;;5.10;99.90;;;;;;5075644;28;20029;-48
2021/12/20 02:57:58;;;;;;;6.90;4.93;;;5.10;99.90;;;;;;5075170;28;20115;-46
2021/12/20 03:00:24;;;;;;;6.65;4.53;;;5.20;99.90;;;;;;5075835;28;20055;-47
2021/12/20 03:02:49;;;;;;;6.63;4.38;;;5.20;99.90;;;;;;5039495;28;20456;-48
2021/12/20 03:05:15;;;;;;;7.30;5.40;;;5.20;99.90;;;;;;5075449;28;20479;-45
2021/12/20 03:07:49;;;;;;;5.63;4.47;;;5.10;99.90;;;;;;5075182;28;20033;-46
2021/12/20 03:10:16;;;;;;;5.75;3.70;;;5.10;99.90;;;;;;5075403;28;20028;-45
2021/12/20 03:12:42;;;;;;;6.00;4.78;;;5.10;99.90;;;;;;5075279;28;20078;-45
2021/12/20 03:15:14;;;;;;;6.03;4.25;;;5.10;99.90;;;;;;5023092;28;20380;-48
2021/12/20 03:17:40;;;;;;;7.55;4.75;;;5.00;99.90;;;;;;5072893;28;20048;-47
2021/12/20 03:20:07;;;;;;;7.07;5.20;;;5.00;99.90;;;;;;5075596;28;20037;-47
2021/12/20 03:22:32;;;;;;;5.57;3.85;;;5.10;99.90;;;;;;5075066;28;20050;-47
2021/12/20 03:24:58;;;;;;;5.97;4.28;;;5.10;99.90;;;;;;5072696;28;21271;-47
2021/12/20 03:27:24;;;;;;;6.03;4.47;;;5.10;99.90;;;;;;5074981;28;20486;-47
2021/12/20 03:29:50;;;;;;;5.82;4.75;;;5.10;99.90;;;;;;5075342;28;20103;-47
2021/12/20 03:32:16;;;;;;;6.10;4.40;;;5.10;99.90;;;;;;5075041;28;20025;-46
2021/12/20 03:34:42;;;;;;;8.82;5.13;;;5.10;99.90;;;;;;5074761;28;20039;-46
2021/12/20 03:37:07;;;;;;;6.93;4.82;;;5.10;99.90;;;;;;5075254;28;20021;-48
2021/12/20 03:39:33;;;;;;;8.95;5.55;;;5.10;99.90;;;;;;5072580;28;20041;-46
2021/12/20 03:42:00;;;;;;;7.10;4.70;;;5.10;99.90;;;;;;5055600;28;20438;-48
2021/12/20 03:44:31;;;;;;;5.53;4.00;;;5.10;99.90;;;;;;5072858;28;20357;-47
2021/12/20 03:46:57;;;;;;;6.10;4.47;;;5.10;99.90;;;;;;5056128;28;20037;-48
2021/12/20 03:49:22;;;;;;;5.28;3.60;;;5.10;99.90;;;;;;5054860;28;20035;-46
2021/12/20 03:51:48;;;;;;;7.28;5.15;;;5.10;99.90;;;;;;5054538;28;20029;-47
2021/12/20 03:54:14;;;;;;;5.82;4.38;;;5.10;99.90;;;;;;5052398;28;20040;-44
2021/12/20 03:56:40;;;;;;;4.90;3.70;;;5.10;99.90;;;;;;5052411;28;20033;-45
2021/12/20 03:59:06;;;;;;;5.22;3.70;;;5.10;99.90;;;;;;5002705;28;20045;-45
2021/12/20 04:01:32;;;;;;;5.57;3.92;;;5.10;99.90;;;;;;5052224;28;20495;-47
2021/12/20 04:04:00;;;;;;;5.75;4.38;;;5.10;99.90;;;;;;5018160;28;20040;-46
2021/12/20 04:06:26;;;;;;;5.25;3.92;;;5.20;99.90;;;;;;5054576;28;20052;-49
2021/12/20 04:08:52;;;;;;;6.47;4.22;;;5.10;99.90;;;;;;5054065;28;20487;-46
2021/12/20 04:11:18;;;;;;;5.95;3.92;;;5.20;99.90;;;;;;5019083;28;20066;-48
2021/12/20 04:13:44;;;;;;;3.78;2.85;;;5.10;99.90;;;;;;5053783;28;20477;-47
2021/12/20 04:16:10;;;;;;;5.60;3.60;;;5.10;99.90;;;;;;5054077;28;20025;-45
2021/12/20 04:18:36;;;;;;;4.88;3.63;;;5.10;99.90;;;;;;5052704;28;20044;-46
2021/12/20 04:21:03;;;;;;;5.05;3.30;;;5.30;99.90;;;;;;5051873;28;20041;-46
2021/12/20 04:23:29;;;;;;;4.88;3.13;;;5.30;99.90;;;;;;5054020;28;20476;-46
2021/12/20 04:25:55;;;;;;;5.03;3.53;;;5.30;99.90;;;;;;5051305;28;20037;-48
2021/12/20 04:28:21;;;;;;;4.53;3.40;;;5.40;99.90;;;;;;5051502;28;20119;-46
2021/12/20 04:30:47;;;;;;;5.53;4.00;;;5.40;99.90;;;;;;5051553;28;20387;-48
2021/12/20 04:33:12;;;;;;;4.55;3.28;;;5.40;99.90;;;;;;5071582;28;20044;-48
2021/12/20 04:35:38;;;;;;;6.72;3.58;;;5.40;99.90;;;;;;4972276;28;20037;-45
2021/12/20 04:38:07;;;;;;;5.72;3.80;;;5.40;99.90;;;;;;5037694;28;20110;-47
2021/12/20 04:40:33;;;;;;;6.32;3.88;;;5.40;99.90;;;;;;5071393;28;20062;-46
2021/12/20 04:42:59;;;;;;;6.75;4.25;;;5.30;99.90;;;;;;5071420;28;20032;-48
2021/12/20 04:45:27;;;;;;;6.43;3.58;;;5.30;99.90;;;;;;5021414;28;20043;-46
2021/12/20 04:47:53;;;;;;;11.85;8.70;;;5.30;99.90;;;;;;5071437;28;20028;-45
2021/12/20 04:50:20;;;;;;;4.93;3.45;;;5.30;99.90;;;;;;5071088;28;20112;-49
2021/12/20 04:52:46;;;;;;;17.35;13.10;;;5.30;99.90;;;;;;5071189;28;20038;-48
2021/12/20 04:55:13;;;;;;;5.97;4.03;;;5.20;99.90;;;;;;5035230;28;20454;-47
2021/12/20 04:57:39;;;;;;;5.65;3.47;;;5.20;99.90;;;;;;5053069;28;20480;-46
2021/12/20 05:00:12;;;;;;;4.32;3.38;;;5.20;99.90;;;;;;5073691;28;20040;-49
2021/12/20 05:02:38;;;;;;;11.68;7.43;;;5.10;99.90;;;;;;5022263;28;20058;-47
2021/12/20 05:05:05;;;;;;;5.50;4.00;;;5.10;99.90;;;;;;5054629;28;20040;-47
2021/12/20 05:07:31;;;;;;;4.70;3.28;;;5.10;99.90;;;;;;5048549;28;20037;-47
2021/12/20 05:10:00;;;;;;;5.47;3.53;;;5.10;99.90;;;;;;5041602;28;20033;-48
2021/12/20 05:12:27;;;;;;;3.85;2.03;;;5.10;99.90;;;;;;5044482;28;20041;-48
2021/12/20 05:14:52;;;;;;;4.93;3.40;;;5.10;99.90;;;;;;5035165;28;20029;-47
2021/12/20 05:17:18;;;;;;;4.38;3.53;;;5.20;99.90;;;;;;5049190;28;20564;-46
2021/12/20 05:19:44;;;;;;;4.90;3.42;;;5.40;99.90;;;;;;5062323;28;20090;-49
2021/12/20 05:22:11;;;;;;;5.43;3.53;;;5.40;99.90;;;;;;5056662;28;20025;-45
2021/12/20 05:24:38;;;;;;;3.60;2.80;;;5.50;99.90;;;;;;5055496;28;20029;-45
2021/12/20 05:27:05;;;;;;;3.92;2.70;;;5.50;99.90;;;;;;5064076;28;20032;-48
2021/12/20 05:29:31;;;;;;;4.00;3.00;;;5.60;99.90;;;;;;5043304;28;20044;-46
2021/12/20 05:31:57;;;;;;;3.25;2.40;;;5.60;99.90;;;;;;5061645;28;20140;-45
2021/12/20 05:34:23;;;;;;;2.75;2.08;;;5.60;99.90;;;;;;5036130;28;20108;-48
2021/12/20 05:36:49;;;;;;;4.07;3.25;;;5.70;99.90;;;;;;5036081;28;20108;-48
2021/12/20 05:39:15;;;;;;;3.42;2.70;;;5.80;99.90;;;;;;5036140;28;20453;-47
2021/12/20 05:41:41;;;;;;;4.43;2.70;;;5.70;99.90;;;;;;5033680;28;20034;-48
2021/12/20 05:44:07;;;;;;;4.38;3.00;;;5.70;99.90;;;;;;5036206;28;20087;-46
2021/12/20 05:46:33;;;;;;;3.90;2.30;;;5.70;99.90;;;;;;5016787;28;20033;-46
2021/12/20 05:48:59;;;;;;;3.55;2.78;;;5.70;99.90;;;;;;5033593;28;20038;-48
2021/12/20 05:51:24;;;;;;;3.38;2.22;;;5.70;99.90;;;;;;5035636;28;20036;-48
2021/12/20 05:53:50;;;;;;;4.07;2.63;;;5.70;99.90;;;;;;5035530;28;20029;-48
2021/12/20 05:56:16;;;;;;;4.47;2.60;;;5.70;99.90;;;;;;5035843;28;20034;-49
2021/12/20 05:58:42;;;;;;;3.15;1.90;;;5.70;99.90;;;;;;5035571;28;20045;-48
2021/12/20 06:01:08;;;;;;;1.70;1.50;;;5.70;99.90;;;;;;5049816;28;20033;-46
2021/12/20 06:03:33;;;;;;;2.72;1.50;;;5.70;99.90;;;;;;5035318;28;20030;-47
2021/12/20 06:05:59;;;;;;;3.17;1.90;;;5.70;99.90;;;;;;5035453;28;20026;-48
2021/12/20 06:08:25;;;;;;;2.42;1.67;;;5.70;99.90;;;;;;5035073;28;20049;-46
2021/12/20 06:10:51;;;;;;;3.90;2.42;;;5.80;99.90;;;;;;5016675;28;20531;-46
2021/12/20 06:13:16;;;;;;;2.05;1.70;;;5.90;99.90;;;;;;5058632;28;20029;-45
2021/12/20 06:15:42;;;;;;;2.78;2.50;;;5.80;99.90;;;;;;5052885;28;20033;-47
2021/12/20 06:18:08;;;;;;;2.97;2.10;;;5.90;99.90;;;;;;5072935;28;20537;-45
2021/12/20 06:20:34;;;;;;;3.15;1.85;;;5.80;99.90;;;;;;5075062;28;20036;-46
2021/12/20 06:22:59;;;;;;;1.98;1.45;;;5.90;99.90;;;;;;5072752;28;20086;-45
2021/12/20 06:25:26;;;;;;;2.95;2.00;;;6.00;99.90;;;;;;5074903;28;20464;-48
2021/12/20 06:27:52;;;;;;;3.63;1.95;;;6.00;99.90;;;;;;5074195;28;20418;-48
2021/12/20 06:30:18;;;;;;;2.58;1.67;;;6.00;99.90;;;;;;5074594;28;20106;-46
2021/12/20 06:32:45;;;;;;;2.40;1.85;;;6.00;99.90;;;;;;5074894;28;20052;-47
2021/12/20 06:35:13;;;;;;;3.63;1.90;;;5.90;99.90;;;;;;5074681;28;20519;-45
2021/12/20 06:37:42;;;;;;;3.78;2.47;;;6.00;99.90;;;;;;5072474;28;20118;-47
2021/12/20 06:40:09;;;;;;;3.55;2.10;;;6.00;99.90;;;;;;5074460;28;20070;-47
2021/12/20 06:42:37;;;;;;;3.40;2.17;;;5.90;99.90;;;;;;5072227;28;20044;-46
2021/12/20 06:45:05;;;;;;;2.78;2.05;;;6.00;99.90;;;;;;5074378;28;20399;-48
2021/12/20 06:47:32;;;;;;;3.92;2.15;;;6.00;99.90;;;;;;5038613;28;20040;-47
2021/12/20 06:49:57;;;;;;;3.75;1.98;;;6.00;99.90;;;;;;5074100;28;20082;-47
2021/12/20 06:52:23;;;;;;;3.47;2.38;;;6.10;99.90;;;;;;5068824;28;20025;-54
2021/12/20 06:54:51;;;;;;;2.33;1.80;;;6.00;99.90;;;;;;5052327;28;20087;-47
2021/12/20 06:57:16;;;;;;;2.83;1.90;;;6.00;99.90;;;;;;5002475;28;20028;-46
2021/12/20 06:59:42;;;;;;;2.72;1.73;;;6.00;99.90;;;;;;5051995;28;20048;-48
2021/12/20 07:02:08;;;;;;;2.25;1.80;;;6.10;99.90;;;;;;5054247;28;20021;-45
2021/12/20 07:04:34;;;;;;;3.80;1.70;;;6.10;99.90;;;;;;5054417;28;20091;-46
2021/12/20 07:07:00;;;;;;;3.65;2.60;;;6.10;99.90;;;;;;5054502;28;20031;-46
2021/12/20 07:09:26;;;;;;;3.85;2.70;;;6.10;99.90;;;;;;5051673;28;20144;-47
2021/12/20 07:11:53;;;;;;;4.53;2.90;;;6.10;99.90;;;;;;5051907;28;20032;-49
2021/12/20 07:14:19;;;;;;;2.33;1.55;;;6.10;99.90;;;;;;5049794;28;20532;-45
2021/12/20 07:16:45;;;;;;;7.60;3.75;;;6.00;99.90;;;;;;5053284;28;20115;-47
2021/12/20 07:19:11;;;;;;;6.22;3.83;;;6.00;99.90;;;;;;5069929;28;20148;-48
2021/12/20 07:21:37;;;;;;;4.78;3.20;;;5.90;99.90;;;;;;5056398;28;20021;-44
2021/12/20 07:24:03;;;;;;;6.28;3.60;;;5.90;99.90;;;;;;5051799;28;20029;-46
2021/12/20 07:26:30;;;;;;;5.40;3.15;;;6.00;99.90;;;;;;5052915;28;20067;-46
2021/12/20 07:28:57;;;;;;;3.95;2.80;;;6.20;99.90;;;;;;5062737;28;20388;-47
2021/12/20 07:31:22;;;;;;;3.88;2.95;;;6.20;99.90;;;;;;5062556;28;20474;-49
2021/12/20 07:33:48;;;;;;;3.85;2.60;;;6.30;99.90;;;;;;5064109;28;20055;-47
2021/12/20 07:36:15;;;;;;;3.80;3.03;;;6.40;99.90;;;;;;5051842;28;20131;-47
2021/12/20 07:38:41;;;;;;;4.88;2.50;;;6.40;99.90;;;;;;5061433;28;20044;-48
2021/12/20 07:41:07;;;;;;;2.78;1.90;;;6.40;99.90;;;;;;5064075;28;20361;-48
2021/12/20 07:43:33;;;;;;;4.97;2.70;;;6.30;99.90;;;;;;5059737;28;20033;-45
2021/12/20 07:45:59;;;;;;;3.50;2.90;;;6.40;99.90;;;;;;5063137;28;20017;-45
2021/12/20 07:48:25;;;;;;;3.72;2.80;;;6.40;99.90;;;;;;5064548;28;20027;-45
2021/12/20 07:50:51;;;;;;;4.75;3.22;;;6.40;99.90;;;;;;5063054;28;20036;-49
2021/12/20 07:53:17;;;;;;;4.72;3.33;;;6.50;99.90;;;;;;5060654;28;20025;-50
2021/12/20 07:55:43;;;;;;;4.70;3.70;;;6.50;99.90;;;;;;5047283;28;20094;-50
2021/12/20 07:58:09;;;;;;;3.90;2.75;;;6.40;99.90;;;;;;5068115;28;20045;-50
2021/12/20 08:00:35;;;;;;;6.40;3.83;;;6.40;99.90;;;;;;5066270;28;20374;-50
2021/12/20 08:03:01;;;;;;;7.55;4.93;;;6.50;99.90;;;;;;5033337;28;20022;-50
2021/12/20 08:05:28;;;;;;;7.32;4.72;;;6.50;99.90;;;;;;5048096;28;20036;-50
2021/12/20 08:07:55;;;;;;;7.20;4.13;;;6.50;99.90;;;;;;5061191;28;20057;-51
2021/12/20 08:10:24;;;;;;;6.75;4.78;;;6.40;99.90;;;;;;5059851;28;20074;-50
2021/12/20 08:12:51;;;;;;;6.13;3.90;;;6.40;99.90;;;;;;5000876;28;20034;-50
2021/12/20 08:15:18;;;;;;;5.30;3.80;;;6.50;99.90;;;;;;4997106;28;20137;-50
2021/12/20 08:17:44;;;;;;;9.55;6.55;;;6.50;99.90;;;;;;5010847;28;20559;-50
2021/12/20 08:20:12;;;;;;;9.13;6.25;;;6.50;99.90;;;;;;5005723;28;20038;-50
2021/12/20 08:22:39;;;;;;;6.20;5.13;;;6.50;99.90;;;;;;5003104;28;20044;-49
2021/12/20 08:25:06;;;;;;;6.10;4.38;;;6.60;99.90;;;;;;4993493;28;20073;-50
2021/12/20 08:27:32;;;;;;;5.00;3.55;;;6.50;99.90;;;;;;4972510;28;20079;-49
2021/12/20 08:29:58;;;;;;;6.80;4.57;;;6.50;99.90;;;;;;4996548;28;20050;-50
2021/12/20 08:32:25;;;;;;;34.10;17.40;;;6.60;99.90;;;;;;4999722;28;20092;-49
2021/12/20 08:34:51;;;;;;;281.77;121.13;;;6.60;99.90;;;;;;4984525;28;20045;-50
2021/12/20 08:37:16;;;;;;;295.40;134.43;;;6.80;99.90;;;;;;4999386;28;20129;-50
2021/12/20 08:39:42;;;;;;;337.23;153.05;;;6.80;99.90;;;;;;4999415;28;20088;-51
2021/12/20 08:42:08;;;;;;;218.07;84.43;;;7.00;99.90;;;;;;5006012;28;20124;-49
2021/12/20 08:44:34;;;;;;;140.60;58.05;;;7.00;99.90;;;;;;5028324;28;20037;-49
2021/12/20 08:47:01;;;;;;;88.35;39.38;;;7.20;99.90;;;;;;5032488;28;20022;-50
2021/12/20 08:49:27;;;;;;;19.25;17.00;;;7.30;99.90;;;;;;5032499;28;20026;-50
2021/12/20 08:51:55;;;;;;;108.85;54.78;;;9.90;99.90;;;;;;5032377;28;20033;-50
2021/12/20 08:54:24;;;;;;;107.40;53.72;;;10.60;99.90;;;;;;5044104;28;20030;-50
2021/12/20 08:56:51;;;;;;;21.33;18.77;;;11.20;99.90;;;;;;5033440;28;20075;-50
2021/12/20 08:59:17;;;;;;;15.45;12.77;;;12.10;99.90;;;;;;5072226;28;20379;-50
2021/12/20 09:01:43;;;;;;;49.10;42.92;;;12.10;99.90;;;;;;5073135;28;20080;-50
2021/12/20 09:04:09;;;;;;;27.42;22.77;;;13.20;99.90;;;;;;5068456;28;20052;-51
2021/12/20 09:06:39;;;;;;;23.70;21.80;;;13.10;98.40;;;;;;5060361;28;20070;-52
2021/12/20 09:09:06;;;;;;;18.23;17.02;;;14.20;97.00;;;;;;5061277;28;20062;-50
2021/12/20 09:11:34;;;;;;;68.65;64.80;;;13.70;96.20;;;;;;5043638;28;20052;-51
2021/12/20 09:14:00;;;;;;;102.20;96.95;;;14.40;96.10;;;;;;5060582;28;20037;-56
2021/12/20 09:16:26;;;;;;;23.35;21.40;;;15.10;94.60;;;;;;5066208;28;20036;-51
2021/12/20 09:18:52;;;;;;;29.88;27.65;;;14.90;92.80;;;;;;5069640;28;20059;-51
2021/12/20 09:21:17;;;;;;;31.85;30.10;;;14.90;92.60;;;;;;5071661;28;20116;-51
2021/12/20 09:23:44;;;;;;;23.02;21.42;;;15.40;91.80;;;;;;5072051;28;20361;-51
2021/12/20 09:26:10;;;;;;;57.20;54.30;;;15.40;90.40;;;;;;5086435;28;20032;-51
2021/12/20 09:28:36;;;;;;;30.13;28.73;;;15.10;90.50;;;;;;5071997;28;20032;-51
2021/12/20 09:31:04;;;;;;;14.68;13.75;;;14.60;90.30;;;;;;5086446;28;20392;-52
2021/12/20 09:33:30;;;;;;;86.88;82.55;;;14.50;90.20;;;;;;5061919;28;20039;-57
2021/12/20 09:35:55;;;;;;;5.57;3.53;;;14.30;90.70;;;;;;5050251;28;20025;-49
2021/12/20 09:38:22;;;;;;;23.65;22.48;;;13.70;91.50;;;;;;5023912;28;20052;-50
2021/12/20 09:41:13;;;;;;;19.65;18.58;;;12.40;91.20;;;;;;5055525;28;20025;-54
2021/12/20 09:43:45;;;;;;;51.97;49.25;;;12.50;91.60;;;;;;5058582;28;20161;-50
2021/12/20 09:46:11;;;;;;;26.33;24.52;;;15.10;90.80;;;;;;5055921;28;20033;-50
2021/12/20 09:48:37;;;;;;;23.52;22.30;;;16.30;90.40;;;;;;5060371;28;20036;-54
2021/12/20 09:51:04;;;;;;;72.93;69.18;;;14.10;89.60;;;;;;5052998;28;20037;-57
2021/12/20 09:53:31;;;;;;;147.60;139.43;;;15.20;88.50;;;;;;5061685;28;20033;-56
2021/12/20 09:55:59;;;;;;;4.53;3.90;;;16.20;87.10;;;;;;5057631;28;20025;-53
2021/12/20 09:58:27;;;;;;;7.55;4.57;;;16.40;85.90;;;;;;5064047;28;20446;-54
2021/12/20 10:00:55;;;;;;;20.98;19.23;;;14.50;87.00;;;;;;5059172;28;20060;-52
2021/12/20 10:03:24;;;;;;;13.00;12.05;;;14.10;89.70;;;;;;5060064;28;20040;-54
2021/12/20 10:05:55;;;;;;;16.42;15.52;;;13.10;90.70;;;;;;5056468;28;20116;-51
2021/12/20 10:08:31;;;;;;;20.02;18.83;;;13.00;91.20;;;;;;5053492;28;20048;-49
2021/12/20 10:10:58;;;;;;;3.83;1.90;;;12.80;90.30;;;;;;5057465;28;20479;-53
2021/12/20 10:13:27;;;;;;;2.45;1.52;;;12.10;91.20;;;;;;5062484;28;20112;-51
2021/12/20 10:15:56;;;;;;;12.07;11.27;;;12.00;90.60;;;;;;5066240;28;20119;-50
2021/12/20 10:18:23;;;;;;;9.80;9.10;;;12.20;91.10;;;;;;5064783;28;20055;-50
2021/12/20 10:20:51;;;;;;;7.15;2.53;;;12.90;90.40;;;;;;5064623;28;20029;-57
2021/12/20 10:23:24;;;;;;;19.40;14.50;;;11.70;90.20;;;;;;5064484;28;20388;-55
2021/12/20 10:25:53;;;;;;;11.20;10.50;;;13.10;90.90;;;;;;5061713;28;20051;-54
2021/12/20 10:28:25;;;;;;;3.80;3.00;;;12.80;88.90;;;;;;5078989;28;20072;-56
2021/12/20 10:31:00;;;;;;;10.45;4.47;;;11.80;88.60;;;;;;5053440;28;20032;-50
2021/12/20 10:33:25;;;;;;;25.63;10.23;;;10.80;89.60;;;;;;5068396;28;20048;-51
2021/12/20 10:36:00;;;;;;;31.60;20.27;;;10.20;90.60;;;;;;5066393;28;20047;-51
2021/12/20 10:38:37;;;;;;;11.45;10.63;;;10.60;90.50;;;;;;5065390;28;20384;-51
2021/12/20 10:41:34;;;;;;;94.65;34.53;;;11.60;90.10;;;;;;5041469;28;20373;-52
2021/12/20 10:44:14;;;;;;;138.27;49.25;;;10.70;89.80;;;;;;5060956;28;20041;-57
2021/12/20 10:46:52;;;;;;;26.88;11.15;;;10.40;89.30;;;;;;5064416;28;20093;-52
2021/12/20 10:49:25;;;;;;;59.72;25.27;;;9.90;90.90;;;;;;5058546;28;20100;-53
2021/12/20 10:51:52;;;;;;;95.18;42.47;;;9.50;91.30;;;;;;5054185;28;20128;-53
2021/12/20 10:54:21;;;;;;;35.40;13.18;;;9.10;91.50;;;;;;5062542;28;20479;-55
2021/12/20 10:56:54;;;;;;;63.60;22.40;;;8.50;91.40;;;;;;5063613;28;20037;-54
2021/12/20 10:59:22;;;;;;;8.30;3.85;;;8.10;92.10;;;;;;5063470;28;20033;-54
2021/12/20 11:04:46;;;;;;;7.10;6.40;;;7.70;92.80;;;;;;5061088;28;20107;-60
2021/12/20 11:09:55;;;;;;;20.08;6.97;;;9.50;92.10;;;;;;5075220;28;20051;-51
2021/12/20 11:12:31;;;;;;;76.60;26.70;;;9.60;91.80;;;;;;5071067;28;20033;-51
2021/12/20 11:15:00;;;;;;;33.33;14.50;;;9.50;92.40;;;;;;5059199;28;20064;-53
2021/12/20 11:17:28;;;;;;;25.73;9.80;;;9.50;92.30;;;;;;5060216;28;20361;-51
2021/12/20 11:19:56;;;;;;;15.50;8.13;;;9.00;92.20;;;;;;5065208;28;20047;-54
2021/12/20 11:22:24;;;;;;;27.95;13.52;;;8.50;92.60;;;;;;5065282;28;20033;-59
2021/12/20 11:24:52;;;;;;;25.08;15.05;;;8.20;93.20;;;;;;5058318;28;20033;-50
2021/12/20 11:27:22;;;;;;;5.43;2.50;;;8.60;93.40;;;;;;5061986;28;20147;-52
2021/12/20 11:29:49;;;;;;;34.90;12.80;;;8.50;93.10;;;;;;5062995;28;20044;-52
2021/12/20 11:32:17;;;;;;;98.82;36.22;;;8.40;93.60;;;;;;5061680;28;20202;-52
2021/12/20 11:34:43;;;;;;;27.00;9.35;;;8.30;94.20;;;;;;5039284;28;20041;-55
2021/12/20 11:37:14;;;;;;;28.08;8.27;;;8.10;94.00;;;;;;5012581;28;20136;-54
2021/12/20 11:39:41;;;;;;;32.53;11.88;;;8.00;94.30;;;;;;5041471;28;20464;-53
2021/12/20 11:42:08;;;;;;;30.13;11.48;;;8.10;94.70;;;;;;5012980;28;20034;-56
2021/12/20 11:44:36;;;;;;;18.02;9.55;;;8.30;93.90;;;;;;4996367;28;20044;-56
2021/12/20 11:47:11;;;;;;;5.13;3.42;;;8.70;94.50;;;;;;5012687;28;20033;-54
2021/12/20 11:49:39;;;;;;;8.75;3.80;;;8.50;94.50;;;;;;5012273;28;20517;-57
2021/12/20 11:52:19;;;;;;;9.48;4.28;;;8.00;94.60;;;;;;5012448;28;20087;-54
2021/12/20 11:54:53;;;;;;;9.18;7.72;;;8.10;95.10;;;;;;5047601;28;20044;-54
2021/12/20 11:57:27;;;;;;;12.85;10.23;;;8.50;95.60;;;;;;5040987;28;20542;-56
2021/12/20 11:59:56;;;;;;;6.25;5.05;;;9.20;94.70;;;;;;5012232;28;20084;-58
2021/12/20 12:02:26;;;;;;;9.93;6.65;;;9.00;93.60;;;;;;5014307;28;20038;-52
2021/12/20 12:05:03;;;;;;;5.43;4.93;;;9.10;93.80;;;;;;5026310;28;20037;-54
2021/12/20 12:07:32;;;;;;;3.97;3.47;;;9.50;94.10;;;;;;5027164;28;20075;-53
2021/12/20 12:10:00;;;;;;;5.03;2.53;;;9.30;94.10;;;;;;4982805;28;20045;-54
2021/12/20 12:12:27;;;;;;;5.30;3.13;;;8.70;94.40;;;;;;5043324;28;20037;-54
2021/12/20 12:15:07;;;;;;;4.18;2.45;;;8.10;94.40;;;;;;5056019;28;20035;-52
2021/12/20 12:17:55;;;;;;;9.68;5.82;;;7.80;94.60;;;;;;5060013;28;20044;-54
2021/12/20 12:20:50;;;;;;;3.47;1.70;;;8.10;94.90;;;;;;5019163;28;20041;-56
2021/12/20 12:23:16;;;;;;;4.57;2.38;;;8.30;95.10;;;;;;5017973;28;20057;-57
2021/12/20 12:25:46;;;;;;;5.75;2.65;;;8.10;94.00;;;;;;5020798;28;20392;-52
2021/12/20 12:28:13;;;;;;;4.18;3.13;;;8.00;94.20;;;;;;5022227;28;20087;-53
2021/12/20 12:30:42;;;;;;;3.42;2.05;;;7.70;95.00;;;;;;5020811;28;20460;-51
2021/12/20 12:33:13;;;;;;;3.38;2.58;;;7.50;95.50;;;;;;4971261;28;20121;-53
2021/12/20 12:35:39;;;;;;;4.10;2.80;;;7.60;95.80;;;;;;5020069;28;20034;-56
2021/12/20 12:38:36;;;;;;;3.65;1.98;;;7.60;96.20;;;;;;5019472;28;20471;-57
2021/12/20 12:41:07;;;;;;;3.67;2.08;;;7.50;96.40;;;;;;5020837;28;20481;-58
2021/12/20 12:43:59;;;;;;;3.53;2.17;;;7.50;96.40;;;;;;5004508;28;20064;-60
2021/12/20 12:46:41;;;;;;;3.25;1.65;;;7.70;95.90;;;;;;5009082;28;20421;-56
2021/12/20 12:49:21;;;;;;;2.27;1.47;;;7.50;96.00;;;;;;5002378;28;20038;-55
2021/12/20 12:52:05;;;;;;;3.97;2.80;;;7.30;96.20;;;;;;4981135;28;20045;-55
2021/12/20 12:54:33;;;;;;;6.20;3.28;;;7.20;96.30;;;;;;5011137;28;20049;-53
2021/12/20 12:57:11;;;;;;;4.07;2.35;;;7.40;96.60;;;;;;5030444;28;20040;-52
2021/12/20 12:59:58;;;;;;;3.50;1.98;;;7.40;96.80;;;;;;5071678;28;20072;-55
2021/12/20 13:02:34;;;;;;;3.55;1.88;;;7.30;96.70;;;;;;5071616;28;20036;-54
2021/12/20 13:05:22;;;;;;;7.60;2.80;;;7.40;97.30;;;;;;5071881;28;20486;-56
2021/12/20 13:07:54;;;;;;;15.65;6.55;;;7.30;97.10;;;;;;5071508;28;20051;-54
2021/12/20 13:10:31;;;;;;;3.70;1.70;;;7.10;96.70;;;;;;5053955;28;20044;-54
2021/12/20 13:13:13;;;;;;;546.58;506.92;;;7.00;96.50;;;;;;5071372;28;20039;-55